sensor_id;sensor_type;location;lat;lon;timestamp;temperature;humidity
67275;DHT22;55463;52.324;5.122;2023-02-15T00:00:02;1.16;99.99
67275;DHT22;55463;52.324;5.122;2023-02-15T00:02:28;1.05;99.99
67275;DHT22;55463;52.324;5.122;2023-02-15T00:04:53;0.96;99.99
67275;DHT22;55463;52.324;5.122;2023-02-15T00:07:21;0.96;99.99
67275;DHT22;55463;52.324;5.122;2023-02-15T00:09:46;0.91;99.99
67275;DHT22;55463;52.324;5.122;2023-02-15T00:12:12;0.95;99.99
67275;DHT22;55463;52.324;5.122;2023-02-15T00:14:38;1.02;99.99
67275;DHT22;55463;52.324;5.122;2023-02-15T00:17:03;1.00;99.99
67275;DHT22;55463;52.324;5.122;2023-02-15T00:19:29;0.99;99.99
67275;DHT22;55463;52.324;5.122;2023-02-15T00:21:54;0.95;99.99
67275;DHT22;55463;52.324;5.122;2023-02-15T00:24:21;0.85;99.99
67275;DHT22;55463;52.324;5.122;2023-02-15T00:26:47;0.79;99.99
67275;DHT22;55463;52.324;5.122;2023-02-15T00:29:14;0.75;99.99
67275;DHT22;55463;52.324;5.122;2023-02-15T00:31:40;0.75;99.99
67275;DHT22;55463;52.324;5.122;2023-02-15T00:34:20;0.89;99.99
67275;DHT22;55463;52.324;5.122;2023-02-15T00:36:46;0.91;99.99
67275;DHT22;55463;52.324;5.122;2023-02-15T00:39:12;0.85;99.99
67275;DHT22;55463;52.324;5.122;2023-02-15T00:41:37;0.91;99.99
67275;DHT22;55463;52.324;5.122;2023-02-15T00:44:03;0.96;99.99
67275;DHT22;55463;52.324;5.122;2023-02-15T00:46:29;0.92;99.99
67275;DHT22;55463;52.324;5.122;2023-02-15T00:48:55;0.91;99.99
67275;DHT22;55463;52.324;5.122;2023-02-15T00:51:20;0.91;99.99
67275;DHT22;55463;52.324;5.122;2023-02-15T00:53:46;0.93;99.99
67275;DHT22;55463;52.324;5.122;2023-02-15T00:56:12;0.89;99.99
67275;DHT22;55463;52.324;5.122;2023-02-15T00:58:38;0.88;99.99
67275;DHT22;55463;52.324;5.122;2023-02-15T01:01:11;0.91;99.99
67275;DHT22;55463;52.324;5.122;2023-02-15T01:03:37;0.89;99.99
67275;DHT22;55463;52.324;5.122;2023-02-15T01:06:03;0.93;99.99
67275;DHT22;55463;52.324;5.122;2023-02-15T01:08:28;0.96;99.99
67275;DHT22;55463;52.324;5.122;2023-02-15T01:10:54;1.00;99.99
67275;DHT22;55463;52.324;5.122;2023-02-15T01:13:20;1.06;99.99
67275;DHT22;55463;52.324;5.122;2023-02-15T01:15:46;1.12;99.99
67275;DHT22;55463;52.324;5.122;2023-02-15T01:18:16;1.19;99.99
67275;DHT22;55463;52.324;5.122;2023-02-15T01:20:42;1.15;99.99
67275;DHT22;55463;52.324;5.122;2023-02-15T01:23:08;1.16;99.99
67275;DHT22;55463;52.324;5.122;2023-02-15T01:25:34;1.17;99.99
67275;DHT22;55463;52.324;5.122;2023-02-15T01:28:00;1.13;99.99
67275;DHT22;55463;52.324;5.122;2023-02-15T01:30:26;1.10;99.99
67275;DHT22;55463;52.324;5.122;2023-02-15T01:32:52;1.06;99.99
67275;DHT22;55463;52.324;5.122;2023-02-15T01:35:17;1.05;99.99
67275;DHT22;55463;52.324;5.122;2023-02-15T01:37:43;0.98;99.99
67275;DHT22;55463;52.324;5.122;2023-02-15T01:40:13;0.98;99.99
67275;DHT22;55463;52.324;5.122;2023-02-15T01:42:39;0.96;99.99
67275;DHT22;55463;52.324;5.122;2023-02-15T01:45:18;0.92;99.99
67275;DHT22;55463;52.324;5.122;2023-02-15T01:50:38;0.81;99.99
67275;DHT22;55463;52.324;5.122;2023-02-15T01:53:38;0.77;99.99
67275;DHT22;55463;52.324;5.122;2023-02-15T01:56:11;0.74;99.99
67275;DHT22;55463;52.324;5.122;2023-02-15T01:58:42;0.65;99.99
67275;DHT22;55463;52.324;5.122;2023-02-15T02:01:11;0.64;99.99
67275;DHT22;55463;52.324;5.122;2023-02-15T02:06:14;0.61;99.99
67275;DHT22;55463;52.324;5.122;2023-02-15T02:08:42;0.67;99.99
67275;DHT22;55463;52.324;5.122;2023-02-15T02:11:11;0.70;99.99
67275;DHT22;55463;52.324;5.122;2023-02-15T02:13:41;0.70;99.99
67275;DHT22;55463;52.324;5.122;2023-02-15T02:28:32;0.61;99.99
67275;DHT22;55463;52.324;5.122;2023-02-15T02:37:14;0.62;99.99
67275;DHT22;55463;52.324;5.122;2023-02-15T02:42:57;0.61;99.99
67275;DHT22;55463;52.324;5.122;2023-02-15T02:46:37;0.65;99.99
67275;DHT22;55463;52.324;5.122;2023-02-15T02:52:50;0.68;99.99
67275;DHT22;55463;52.324;5.122;2023-02-15T02:56:15;0.64;99.99
67275;DHT22;55463;52.324;5.122;2023-02-15T03:05:15;0.51;99.99
67275;DHT22;55463;52.324;5.122;2023-02-15T03:07:49;0.49;99.99
67275;DHT22;55463;52.324;5.122;2023-02-15T03:20:30;0.46;99.99
67275;DHT22;55463;52.324;5.122;2023-02-15T03:26:27;0.47;99.99
67275;DHT22;55463;52.324;5.122;2023-02-15T03:29:10;0.46;99.99
67275;DHT22;55463;52.324;5.122;2023-02-15T03:32:00;0.49;99.99
67275;DHT22;55463;52.324;5.122;2023-02-15T03:35:01;0.56;99.99
67275;DHT22;55463;52.324;5.122;2023-02-15T03:38:01;0.57;99.99
67275;DHT22;55463;52.324;5.122;2023-02-15T03:41:12;0.61;99.99
67275;DHT22;55463;52.324;5.122;2023-02-15T03:44:04;0.57;99.99
67275;DHT22;55463;52.324;5.122;2023-02-15T03:46:55;0.60;99.99
67275;DHT22;55463;52.324;5.122;2023-02-15T03:52:30;0.53;99.99
67275;DHT22;55463;52.324;5.122;2023-02-15T03:55:00;0.49;99.99
67275;DHT22;55463;52.324;5.122;2023-02-15T03:57:27;0.46;99.99
67275;DHT22;55463;52.324;5.122;2023-02-15T04:00:32;0.46;99.99
67275;DHT22;55463;52.324;5.122;2023-02-15T04:03:39;0.47;99.99
67275;DHT22;55463;52.324;5.122;2023-02-15T04:06:07;0.43;99.99
67275;DHT22;55463;52.324;5.122;2023-02-15T04:08:35;0.39;99.99
67275;DHT22;55463;52.324;5.122;2023-02-15T04:11:19;0.33;99.99
67275;DHT22;55463;52.324;5.122;2023-02-15T04:13:47;0.33;99.99
67275;DHT22;55463;52.324;5.122;2023-02-15T04:16:12;0.30;99.99
67275;DHT22;55463;52.324;5.122;2023-02-15T04:18:40;0.26;99.99
67275;DHT22;55463;52.324;5.122;2023-02-15T04:21:26;0.26;99.99
67275;DHT22;55463;52.324;5.122;2023-02-15T04:24:11;0.22;99.99
67275;DHT22;55463;52.324;5.122;2023-02-15T04:26:56;0.20;99.99
67275;DHT22;55463;52.324;5.122;2023-02-15T04:29:23;0.17;99.99
67275;DHT22;55463;52.324;5.122;2023-02-15T04:31:49;0.17;99.99
67275;DHT22;55463;52.324;5.122;2023-02-15T04:34:15;0.24;99.99
67275;DHT22;55463;52.324;5.122;2023-02-15T04:36:41;0.32;99.99
67275;DHT22;55463;52.324;5.122;2023-02-15T04:39:07;0.29;99.99
67275;DHT22;55463;52.324;5.122;2023-02-15T04:41:32;0.27;99.99
67275;DHT22;55463;52.324;5.122;2023-02-15T04:43:58;0.32;99.99
67275;DHT22;55463;52.324;5.122;2023-02-15T04:46:25;0.29;99.99
67275;DHT22;55463;52.324;5.122;2023-02-15T04:48:51;0.26;99.99
67275;DHT22;55463;52.324;5.122;2023-02-15T04:51:16;0.19;99.99
67275;DHT22;55463;52.324;5.122;2023-02-15T04:53:42;0.16;99.99
67275;DHT22;55463;52.324;5.122;2023-02-15T04:56:07;0.16;99.99
67275;DHT22;55463;52.324;5.122;2023-02-15T04:58:33;0.22;99.99
67275;DHT22;55463;52.324;5.122;2023-02-15T05:00:58;0.22;99.99
67275;DHT22;55463;52.324;5.122;2023-02-15T05:03:24;0.24;99.99
67275;DHT22;55463;52.324;5.122;2023-02-15T05:05:50;0.27;99.99
67275;DHT22;55463;52.324;5.122;2023-02-15T05:08:15;0.26;99.99
67275;DHT22;55463;52.324;5.122;2023-02-15T05:10:41;0.20;99.99
67275;DHT22;55463;52.324;5.122;2023-02-15T05:13:07;0.19;99.99
67275;DHT22;55463;52.324;5.122;2023-02-15T05:15:32;0.27;99.99
67275;DHT22;55463;52.324;5.122;2023-02-15T05:17:58;0.27;99.99
67275;DHT22;55463;52.324;5.122;2023-02-15T05:20:23;0.22;99.99
67275;DHT22;55463;52.324;5.122;2023-02-15T05:22:49;0.24;99.99
67275;DHT22;55463;52.324;5.122;2023-02-15T05:25:18;0.29;99.99
67275;DHT22;55463;52.324;5.122;2023-02-15T05:28:01;0.32;99.99
67275;DHT22;55463;52.324;5.122;2023-02-15T05:31:08;0.30;99.99
67275;DHT22;55463;52.324;5.122;2023-02-15T05:33:35;0.34;99.99
67275;DHT22;55463;52.324;5.122;2023-02-15T05:36:01;0.33;99.99
67275;DHT22;55463;52.324;5.122;2023-02-15T05:38:26;0.29;99.99
67275;DHT22;55463;52.324;5.122;2023-02-15T05:40:52;0.26;99.99
67275;DHT22;55463;52.324;5.122;2023-02-15T05:43:18;0.22;99.99
67275;DHT22;55463;52.324;5.122;2023-02-15T05:45:47;0.13;99.99
67275;DHT22;55463;52.324;5.122;2023-02-15T05:48:13;0.07;99.99
67275;DHT22;55463;52.324;5.122;2023-02-15T05:50:39;0.02;99.99
67275;DHT22;55463;52.324;5.122;2023-02-15T05:53:04;0.01;99.99
67275;DHT22;55463;52.324;5.122;2023-02-15T05:55:29;-0.01;99.99
67275;DHT22;55463;52.324;5.122;2023-02-15T05:57:55;0.07;99.99
67275;DHT22;55463;52.324;5.122;2023-02-15T06:00:20;0.02;99.99
67275;DHT22;55463;52.324;5.122;2023-02-15T06:02:46;-0.01;99.99
67275;DHT22;55463;52.324;5.122;2023-02-15T06:05:11;0.02;99.99
67275;DHT22;55463;52.324;5.122;2023-02-15T06:07:36;0.01;99.99
67275;DHT22;55463;52.324;5.122;2023-02-15T06:10:03;-0.05;99.99
67275;DHT22;55463;52.324;5.122;2023-02-15T06:12:28;-0.12;99.99
67275;DHT22;55463;52.324;5.122;2023-02-15T06:14:54;-0.19;99.99
67275;DHT22;55463;52.324;5.122;2023-02-15T06:17:19;-0.23;99.99
67275;DHT22;55463;52.324;5.122;2023-02-15T06:19:47;-0.25;99.99
67275;DHT22;55463;52.324;5.122;2023-02-15T06:22:12;-0.32;99.99
67275;DHT22;55463;52.324;5.122;2023-02-15T06:24:39;-0.28;99.99
67275;DHT22;55463;52.324;5.122;2023-02-15T06:27:07;-0.26;99.99
67275;DHT22;55463;52.324;5.122;2023-02-15T06:29:33;-0.25;99.99
67275;DHT22;55463;52.324;5.122;2023-02-15T06:31:58;-0.22;99.99
67275;DHT22;55463;52.324;5.122;2023-02-15T06:34:23;-0.29;99.99
67275;DHT22;55463;52.324;5.122;2023-02-15T06:36:49;-0.29;99.99
67275;DHT22;55463;52.324;5.122;2023-02-15T06:39:14;-0.28;99.99
67275;DHT22;55463;52.324;5.122;2023-02-15T06:41:40;-0.16;99.99
67275;DHT22;55463;52.324;5.122;2023-02-15T06:44:05;-0.13;99.99
67275;DHT22;55463;52.324;5.122;2023-02-15T06:46:31;-0.15;99.99
67275;DHT22;55463;52.324;5.122;2023-02-15T06:48:56;-0.12;99.99
67275;DHT22;55463;52.324;5.122;2023-02-15T06:51:22;-0.08;99.99
67275;DHT22;55463;52.324;5.122;2023-02-15T06:53:47;-0.04;99.99
67275;DHT22;55463;52.324;5.122;2023-02-15T06:56:13;-0.06;99.99
67275;DHT22;55463;52.324;5.122;2023-02-15T06:58:39;0.02;99.99
67275;DHT22;55463;52.324;5.122;2023-02-15T07:01:06;-0.01;99.99
67275;DHT22;55463;52.324;5.122;2023-02-15T07:03:32;0.02;99.99
67275;DHT22;55463;52.324;5.122;2023-02-15T07:05:59;0.06;99.99
67275;DHT22;55463;52.324;5.122;2023-02-15T07:08:26;0.06;99.99
67275;DHT22;55463;52.324;5.122;2023-02-15T07:10:53;0.09;99.99
67275;DHT22;55463;52.324;5.122;2023-02-15T07:13:19;0.07;99.99
67275;DHT22;55463;52.324;5.122;2023-02-15T07:15:45;0.15;99.99
67275;DHT22;55463;52.324;5.122;2023-02-15T07:18:11;0.13;99.99
67275;DHT22;55463;52.324;5.122;2023-02-15T07:20:37;0.15;99.99
67275;DHT22;55463;52.324;5.122;2023-02-15T07:23:04;0.22;99.99
67275;DHT22;55463;52.324;5.122;2023-02-15T07:25:30;0.23;99.99
67275;DHT22;55463;52.324;5.122;2023-02-15T07:27:59;0.22;99.99
67275;DHT22;55463;52.324;5.122;2023-02-15T07:30:26;0.27;99.99
67275;DHT22;55463;52.324;5.122;2023-02-15T07:32:56;0.36;99.99
67275;DHT22;55463;52.324;5.122;2023-02-15T07:35:56;0.40;99.99
67275;DHT22;55463;52.324;5.122;2023-02-15T07:38:26;0.44;99.99
67275;DHT22;55463;52.324;5.122;2023-02-15T07:40:51;0.51;99.99
67275;DHT22;55463;52.324;5.122;2023-02-15T07:43:22;0.54;99.99
67275;DHT22;55463;52.324;5.122;2023-02-15T07:45:48;0.61;99.99
67275;DHT22;55463;52.324;5.122;2023-02-15T07:48:13;0.68;99.99
67275;DHT22;55463;52.324;5.122;2023-02-15T07:50:38;0.72;99.99
67275;DHT22;55463;52.324;5.122;2023-02-15T07:53:04;0.74;99.99
67275;DHT22;55463;52.324;5.122;2023-02-15T07:55:29;0.79;99.99
67275;DHT22;55463;52.324;5.122;2023-02-15T07:57:55;0.81;99.99
67275;DHT22;55463;52.324;5.122;2023-02-15T08:00:21;0.88;99.99
67275;DHT22;55463;52.324;5.122;2023-02-15T08:02:54;0.99;99.99
67275;DHT22;55463;52.324;5.122;2023-02-15T08:05:39;1.06;99.99
67275;DHT22;55463;52.324;5.122;2023-02-15T08:08:06;1.10;99.99
67275;DHT22;55463;52.324;5.122;2023-02-15T08:10:32;1.16;99.99
67275;DHT22;55463;52.324;5.122;2023-02-15T08:13:16;1.27;99.99
67275;DHT22;55463;52.324;5.122;2023-02-15T08:15:51;1.37;99.99
67275;DHT22;55463;52.324;5.122;2023-02-15T08:18:17;1.46;99.99
67275;DHT22;55463;52.324;5.122;2023-02-15T08:20:42;1.50;99.99
67275;DHT22;55463;52.324;5.122;2023-02-15T08:23:07;1.61;99.99
67275;DHT22;55463;52.324;5.122;2023-02-15T08:25:33;1.69;99.99
67275;DHT22;55463;52.324;5.122;2023-02-15T08:27:58;1.77;99.99
67275;DHT22;55463;52.324;5.122;2023-02-15T08:30:24;1.88;99.99
67275;DHT22;55463;52.324;5.122;2023-02-15T08:32:49;1.98;99.99
67275;DHT22;55463;52.324;5.122;2023-02-15T08:35:14;2.05;99.99
67275;DHT22;55463;52.324;5.122;2023-02-15T08:37:40;2.23;99.99
67275;DHT22;55463;52.324;5.122;2023-02-15T08:40:06;2.32;99.99
67275;DHT22;55463;52.324;5.122;2023-02-15T08:42:33;2.34;99.99
67275;DHT22;55463;52.324;5.122;2023-02-15T08:44:58;2.40;99.99
67275;DHT22;55463;52.324;5.122;2023-02-15T08:47:23;2.45;99.99
67275;DHT22;55463;52.324;5.122;2023-02-15T08:49:49;2.54;99.99
67275;DHT22;55463;52.324;5.122;2023-02-15T08:52:16;2.65;99.99
67275;DHT22;55463;52.324;5.122;2023-02-15T08:54:41;2.75;99.99
67275;DHT22;55463;52.324;5.122;2023-02-15T08:57:07;2.88;99.99
67275;DHT22;55463;52.324;5.122;2023-02-15T08:59:32;3.06;99.99
67275;DHT22;55463;52.324;5.122;2023-02-15T09:02:00;3.20;99.99
67275;DHT22;55463;52.324;5.122;2023-02-15T09:04:26;3.37;99.99
67275;DHT22;55463;52.324;5.122;2023-02-15T09:06:51;3.47;99.99
67275;DHT22;55463;52.324;5.122;2023-02-15T09:09:20;3.62;99.99
67275;DHT22;55463;52.324;5.122;2023-02-15T09:11:49;3.76;99.99
67275;DHT22;55463;52.324;5.122;2023-02-15T09:14:19;3.92;99.99
67275;DHT22;55463;52.324;5.122;2023-02-15T09:16:46;4.10;99.99
67275;DHT22;55463;52.324;5.122;2023-02-15T09:19:14;4.24;99.99
67275;DHT22;55463;52.324;5.122;2023-02-15T09:21:40;4.36;99.99
67275;DHT22;55463;52.324;5.122;2023-02-15T09:24:10;4.51;99.92
67275;DHT22;55463;52.324;5.122;2023-02-15T09:26:38;4.61;99.72
67275;DHT22;55463;52.324;5.122;2023-02-15T09:29:08;4.68;99.56
67275;DHT22;55463;52.324;5.122;2023-02-15T09:31:38;4.79;99.23
67275;DHT22;55463;52.324;5.122;2023-02-15T09:34:03;4.89;99.00
67275;DHT22;55463;52.324;5.122;2023-02-15T09:36:37;4.95;99.43
67275;DHT22;55463;52.324;5.122;2023-02-15T09:39:17;5.03;98.93
67275;DHT22;55463;52.324;5.122;2023-02-15T09:44:50;5.09;98.14
67275;DHT22;55463;52.324;5.122;2023-02-15T09:47:53;5.13;97.64
67275;DHT22;55463;52.324;5.122;2023-02-15T09:50:40;5.16;98.13
67275;DHT22;55463;52.324;5.122;2023-02-15T09:53:40;5.23;97.80
67275;DHT22;55463;52.324;5.122;2023-02-15T09:59:18;5.31;97.78
67275;DHT22;55463;52.324;5.122;2023-02-15T10:05:04;5.42;97.66
67275;DHT22;55463;52.324;5.122;2023-02-15T10:10:41;5.69;97.32
67275;DHT22;55463;52.324;5.122;2023-02-15T10:13:44;5.76;97.22
67275;DHT22;55463;52.324;5.122;2023-02-15T10:16:29;5.86;96.50
67275;DHT22;55463;52.324;5.122;2023-02-15T10:19:24;5.92;97.31
67275;DHT22;55463;52.324;5.122;2023-02-15T10:28:02;6.28;96.94
67275;DHT22;55463;52.324;5.122;2023-02-15T10:30:43;6.41;96.53
67275;DHT22;55463;52.324;5.122;2023-02-15T10:33:39;6.48;96.27
67275;DHT22;55463;52.324;5.122;2023-02-15T10:36:31;6.49;96.21
67275;DHT22;55463;52.324;5.122;2023-02-15T10:41:52;6.65;96.20
67275;DHT22;55463;52.324;5.122;2023-02-15T10:45:02;6.71;95.33
67275;DHT22;55463;52.324;5.122;2023-02-15T10:58:59;7.24;92.93
67275;DHT22;55463;52.324;5.122;2023-02-15T11:06:47;7.62;91.59
67275;DHT22;55463;52.324;5.122;2023-02-15T11:09:19;7.79;91.57
67275;DHT22;55463;52.324;5.122;2023-02-15T11:11:49;7.89;90.00
67275;DHT22;55463;52.324;5.122;2023-02-15T11:14:23;7.95;90.18
67275;DHT22;55463;52.324;5.122;2023-02-15T11:16:59;8.07;90.96
67275;DHT22;55463;52.324;5.122;2023-02-15T11:19:55;8.20;89.82
67275;DHT22;55463;52.324;5.122;2023-02-15T11:22:30;8.32;89.14
67275;DHT22;55463;52.324;5.122;2023-02-15T11:24:57;8.41;88.80
67275;DHT22;55463;52.324;5.122;2023-02-15T11:27:30;8.45;89.60
67275;DHT22;55463;52.324;5.122;2023-02-15T11:30:11;8.65;89.11
67275;DHT22;55463;52.324;5.122;2023-02-15T11:38:05;9.15;87.75
67275;DHT22;55463;52.324;5.122;2023-02-15T11:40:40;9.28;87.22
67275;DHT22;55463;52.324;5.122;2023-02-15T11:43:15;9.38;87.62
67275;DHT22;55463;52.324;5.122;2023-02-15T11:45:50;9.48;87.49
67275;DHT22;55463;52.324;5.122;2023-02-15T11:48:15;9.52;87.01
67275;DHT22;55463;52.324;5.122;2023-02-15T11:50:43;9.60;85.32
67275;DHT22;55463;52.324;5.122;2023-02-15T11:53:16;9.65;85.22
67275;DHT22;55463;52.324;5.122;2023-02-15T11:55:43;9.65;85.46
67275;DHT22;55463;52.324;5.122;2023-02-15T11:58:21;9.63;85.06
67275;DHT22;55463;52.324;5.122;2023-02-15T12:00:53;9.65;84.82
67275;DHT22;55463;52.324;5.122;2023-02-15T12:06:30;9.89;85.21
67275;DHT22;55463;52.324;5.122;2023-02-15T12:11:42;10.35;84.94
67275;DHT22;55463;52.324;5.122;2023-02-15T12:14:09;10.42;83.64
67275;DHT22;55463;52.324;5.122;2023-02-15T12:19:31;10.69;83.06
67275;DHT22;55463;52.324;5.122;2023-02-15T12:22:02;10.74;82.85
67275;DHT22;55463;52.324;5.122;2023-02-15T12:25:19;10.83;81.17
67275;DHT22;55463;52.324;5.122;2023-02-15T12:27:58;10.83;80.68
67275;DHT22;55463;52.324;5.122;2023-02-15T12:30:31;10.80;80.38
67275;DHT22;55463;52.324;5.122;2023-02-15T12:36:12;11.08;80.50
67275;DHT22;55463;52.324;5.122;2023-02-15T12:39:19;11.27;79.78
67275;DHT22;55463;52.324;5.122;2023-02-15T12:45:49;11.51;77.67
67275;DHT22;55463;52.324;5.122;2023-02-15T13:19:37;11.59;76.40
67275;DHT22;55463;52.324;5.122;2023-02-15T13:25:40;11.62;76.42
67275;DHT22;55463;52.324;5.122;2023-02-15T13:28:12;11.62;76.93
67275;DHT22;55463;52.324;5.122;2023-02-15T13:31:02;11.67;76.32
67275;DHT22;55463;52.324;5.122;2023-02-15T13:33:38;11.72;77.02
67275;DHT22;55463;52.324;5.122;2023-02-15T13:36:10;11.80;77.77
67275;DHT22;55463;52.324;5.122;2023-02-15T13:55:44;11.36;79.47
67275;DHT22;55463;52.324;5.122;2023-02-15T13:58:32;11.24;78.78
67275;DHT22;55463;52.324;5.122;2023-02-15T14:01:17;11.25;78.97
67275;DHT22;55463;52.324;5.122;2023-02-15T14:09:48;11.38;79.06
67275;DHT22;55463;52.324;5.122;2023-02-15T14:15:36;11.49;79.30
67275;DHT22;55463;52.324;5.122;2023-02-15T14:18:15;11.55;78.93
67275;DHT22;55463;52.324;5.122;2023-02-15T14:20:51;11.56;79.00
67275;DHT22;55463;52.324;5.122;2023-02-15T14:29:07;11.45;78.20
67275;DHT22;55463;52.324;5.122;2023-02-15T14:31:41;11.45;78.13
67275;DHT22;55463;52.324;5.122;2023-02-15T14:34:22;11.52;78.04
67275;DHT22;55463;52.324;5.122;2023-02-15T14:36:50;11.51;77.92
67275;DHT22;55463;52.324;5.122;2023-02-15T14:39:35;11.46;78.19
67275;DHT22;55463;52.324;5.122;2023-02-15T14:42:28;11.40;77.54
67275;DHT22;55463;52.324;5.122;2023-02-15T14:45:04;11.45;76.98
67275;DHT22;55463;52.324;5.122;2023-02-15T14:47:48;11.66;76.59
67275;DHT22;55463;52.324;5.122;2023-02-15T14:56:17;12.25;75.26
67275;DHT22;55463;52.324;5.122;2023-02-15T15:03:54;11.70;75.93
67275;DHT22;55463;52.324;5.122;2023-02-15T15:06:32;11.43;76.87
67275;DHT22;55463;52.324;5.122;2023-02-15T15:09:22;11.18;77.55
67275;DHT22;55463;52.324;5.122;2023-02-15T15:11:51;11.00;78.30
67275;DHT22;55463;52.324;5.122;2023-02-15T15:14:43;10.79;79.11
67275;DHT22;55463;52.324;5.122;2023-02-15T15:17:41;10.60;79.09
67275;DHT22;55463;52.324;5.122;2023-02-15T15:22:33;10.38;80.31
67275;DHT22;55463;52.324;5.122;2023-02-15T15:25:04;10.28;80.78
67275;DHT22;55463;52.324;5.122;2023-02-15T15:49:10;9.63;83.16
67275;DHT22;55463;52.324;5.122;2023-02-15T15:51:40;9.57;83.75
67275;DHT22;55463;52.324;5.122;2023-02-15T15:54:14;9.50;83.80
67275;DHT22;55463;52.324;5.122;2023-02-15T15:56:44;9.43;83.99
67275;DHT22;55463;52.324;5.122;2023-02-15T15:59:20;9.36;84.03
67275;DHT22;55463;52.324;5.122;2023-02-15T16:01:48;9.35;84.14
67275;DHT22;55463;52.324;5.122;2023-02-15T16:04:24;9.36;84.52
67275;DHT22;55463;52.324;5.122;2023-02-15T16:06:51;9.32;84.40
67275;DHT22;55463;52.324;5.122;2023-02-15T16:09:19;9.22;84.61
67275;DHT22;55463;52.324;5.122;2023-02-15T16:11:51;9.21;85.29
67275;DHT22;55463;52.324;5.122;2023-02-15T16:14:25;9.14;85.31
67275;DHT22;55463;52.324;5.122;2023-02-15T16:16:54;9.04;85.35
67275;DHT22;55463;52.324;5.122;2023-02-15T16:19:24;8.88;85.62
67275;DHT22;55463;52.324;5.122;2023-02-15T16:21:51;8.84;85.72
67275;DHT22;55463;52.324;5.122;2023-02-15T16:27:33;8.66;85.84
67275;DHT22;55463;52.324;5.122;2023-02-15T16:32:48;8.45;86.62
67275;DHT22;55463;52.324;5.122;2023-02-15T16:35:17;8.34;87.17
67275;DHT22;55463;52.324;5.122;2023-02-15T16:37:46;8.22;87.32
67275;DHT22;55463;52.324;5.122;2023-02-15T16:43:00;8.07;87.99
67275;DHT22;55463;52.324;5.122;2023-02-15T16:45:27;7.95;88.28
67275;DHT22;55463;52.324;5.122;2023-02-15T16:47:56;7.91;88.36
67275;DHT22;55463;52.324;5.122;2023-02-15T16:50:28;7.86;88.53
67275;DHT22;55463;52.324;5.122;2023-02-15T16:52:58;7.77;88.53
67275;DHT22;55463;52.324;5.122;2023-02-15T16:55:28;7.66;88.95
67275;DHT22;55463;52.324;5.122;2023-02-15T16:58:01;7.54;89.07
67275;DHT22;55463;52.324;5.122;2023-02-15T17:00:31;7.47;89.25
67275;DHT22;55463;52.324;5.122;2023-02-15T17:03:25;7.36;89.51
67275;DHT22;55463;52.324;5.122;2023-02-15T17:05:59;7.30;89.91
67275;DHT22;55463;52.324;5.122;2023-02-15T17:08:31;7.30;89.98
67275;DHT22;55463;52.324;5.122;2023-02-15T17:11:34;7.28;90.01
67275;DHT22;55463;52.324;5.122;2023-02-15T17:16:45;7.18;90.17
67275;DHT22;55463;52.324;5.122;2023-02-15T17:19:22;7.17;90.28
67275;DHT22;55463;52.324;5.122;2023-02-15T17:22:01;7.11;90.26
67275;DHT22;55463;52.324;5.122;2023-02-15T17:26:59;7.10;90.48
67275;DHT22;55463;52.324;5.122;2023-02-15T17:29:31;7.08;90.37
67275;DHT22;55463;52.324;5.122;2023-02-15T17:31:59;7.04;90.32
67275;DHT22;55463;52.324;5.122;2023-02-15T17:34:50;7.00;90.42
67275;DHT22;55463;52.324;5.122;2023-02-15T17:40:26;6.87;90.71
67275;DHT22;55463;52.324;5.122;2023-02-15T17:42:52;6.87;90.85
67275;DHT22;55463;52.324;5.122;2023-02-15T17:45:18;6.80;90.93
67275;DHT22;55463;52.324;5.122;2023-02-15T17:47:46;6.77;91.17
67275;DHT22;55463;52.324;5.122;2023-02-15T17:50:26;6.72;91.10
67275;DHT22;55463;52.324;5.122;2023-02-15T17:52:53;6.61;91.30
67275;DHT22;55463;52.324;5.122;2023-02-15T17:55:21;6.50;91.54
67275;DHT22;55463;52.324;5.122;2023-02-15T17:58:12;6.46;91.68
67275;DHT22;55463;52.324;5.122;2023-02-15T18:00:43;6.39;91.93
67275;DHT22;55463;52.324;5.122;2023-02-15T18:03:48;6.28;92.23
67275;DHT22;55463;52.324;5.122;2023-02-15T18:06:38;6.25;92.47
67275;DHT22;55463;52.324;5.122;2023-02-15T18:09:23;6.13;92.78
67275;DHT22;55463;52.324;5.122;2023-02-15T18:12:30;6.11;93.08
67275;DHT22;55463;52.324;5.122;2023-02-15T18:14:57;6.06;93.10
67275;DHT22;55463;52.324;5.122;2023-02-15T18:17:32;6.03;93.31
67275;DHT22;55463;52.324;5.122;2023-02-15T18:19:59;5.99;93.50
67275;DHT22;55463;52.324;5.122;2023-02-15T18:22:29;5.99;93.66
67275;DHT22;55463;52.324;5.122;2023-02-15T18:24:58;5.99;93.72
67275;DHT22;55463;52.324;5.122;2023-02-15T18:27:27;5.97;93.73
67275;DHT22;55463;52.324;5.122;2023-02-15T18:29:52;5.92;93.82
67275;DHT22;55463;52.324;5.122;2023-02-15T18:32:31;5.96;93.90
67275;DHT22;55463;52.324;5.122;2023-02-15T18:34:57;5.97;93.80
67275;DHT22;55463;52.324;5.122;2023-02-15T18:37:25;5.96;93.86
67275;DHT22;55463;52.324;5.122;2023-02-15T18:39:52;6.04;93.86
67275;DHT22;55463;52.324;5.122;2023-02-15T18:42:26;6.10;93.85
67275;DHT22;55463;52.324;5.122;2023-02-15T18:44:57;6.09;93.83
67275;DHT22;55463;52.324;5.122;2023-02-15T18:47:23;6.13;93.87
67275;DHT22;55463;52.324;5.122;2023-02-15T18:49:49;6.11;93.77
67275;DHT22;55463;52.324;5.122;2023-02-15T18:52:21;6.13;93.81
67275;DHT22;55463;52.324;5.122;2023-02-15T18:54:52;6.24;93.77
67275;DHT22;55463;52.324;5.122;2023-02-15T18:57:18;6.25;93.54
67275;DHT22;55463;52.324;5.122;2023-02-15T18:59:43;6.22;93.47
67275;DHT22;55463;52.324;5.122;2023-02-15T19:02:13;6.21;93.46
67275;DHT22;55463;52.324;5.122;2023-02-15T19:04:39;6.20;93.43
67275;DHT22;55463;52.324;5.122;2023-02-15T19:07:05;6.17;93.32
67275;DHT22;55463;52.324;5.122;2023-02-15T19:09:33;6.13;93.40
67275;DHT22;55463;52.324;5.122;2023-02-15T19:11:58;6.14;93.33
67275;DHT22;55463;52.324;5.122;2023-02-15T19:14:34;6.09;93.30
67275;DHT22;55463;52.324;5.122;2023-02-15T19:17:00;6.06;93.30
67275;DHT22;55463;52.324;5.122;2023-02-15T19:19:26;6.07;93.28
67275;DHT22;55463;52.324;5.122;2023-02-15T19:21:52;6.04;93.24
67275;DHT22;55463;52.324;5.122;2023-02-15T19:24:21;5.99;93.26
67275;DHT22;55463;52.324;5.122;2023-02-15T19:26:48;5.93;93.28
67275;DHT22;55463;52.324;5.122;2023-02-15T19:29:18;5.90;93.41
67275;DHT22;55463;52.324;5.122;2023-02-15T19:31:45;5.90;93.54
67275;DHT22;55463;52.324;5.122;2023-02-15T19:34:16;5.92;93.35
67275;DHT22;55463;52.324;5.122;2023-02-15T19:36:43;5.83;93.42
67275;DHT22;55463;52.324;5.122;2023-02-15T19:39:23;5.83;93.39
67275;DHT22;55463;52.324;5.122;2023-02-15T19:41:50;5.79;93.51
67275;DHT22;55463;52.324;5.122;2023-02-15T19:44:15;5.76;93.72
67275;DHT22;55463;52.324;5.122;2023-02-15T19:46:45;5.80;93.64
67275;DHT22;55463;52.324;5.122;2023-02-15T19:49:11;5.73;93.73
67275;DHT22;55463;52.324;5.122;2023-02-15T19:51:37;5.69;93.75
67275;DHT22;55463;52.324;5.122;2023-02-15T19:54:28;5.65;93.83
67275;DHT22;55463;52.324;5.122;2023-02-15T19:56:54;5.58;93.95
67275;DHT22;55463;52.324;5.122;2023-02-15T19:59:26;5.56;94.02
67275;DHT22;55463;52.324;5.122;2023-02-15T20:01:52;5.48;94.14
67275;DHT22;55463;52.324;5.122;2023-02-15T20:04:18;5.47;94.27